sensor_id;sensor_type;location;lat;lon;timestamp;pressure;altitude;pressure_sealevel;temperature;humidity
6393;BME280;3229;42.674;23.282;2023-02-03T00:00:40;94834.16;;;8.61;55.74
6393;BME280;3229;42.674;23.282;2023-02-03T00:03:07;94830.91;;;8.59;56.02
6393;BME280;3229;42.674;23.282;2023-02-03T00:05:34;94835.19;;;8.58;55.83
6393;BME280;3229;42.674;23.282;2023-02-03T00:08:03;94831.97;;;8.56;55.99
6393;BME280;3229;42.674;23.282;2023-02-03T00:10:30;94837.19;;;8.54;55.93
6393;BME280;3229;42.674;23.282;2023-02-03T00:12:58;94828.06;;;8.52;56.24
6393;BME280;3229;42.674;23.282;2023-02-03T00:15:25;94848.53;;;8.50;56.24
6393;BME280;3229;42.674;23.282;2023-02-03T00:17:53;94827.84;;;8.44;56.34
6393;BME280;3229;42.674;23.282;2023-02-03T00:20:20;94841.16;;;8.47;56.47
6393;BME280;3229;42.674;23.282;2023-02-03T00:22:47;94840.34;;;8.47;56.37
6393;BME280;3229;42.674;23.282;2023-02-03T00:25:14;94848.09;;;8.45;56.41
6393;BME280;3229;42.674;23.282;2023-02-03T00:27:40;94850.78;;;8.44;56.39
6393;BME280;3229;42.674;23.282;2023-02-03T00:30:08;94846.63;;;8.43;56.56
6393;BME280;3229;42.674;23.282;2023-02-03T00:32:35;94840.81;;;8.41;56.77
6393;BME280;3229;42.674;23.282;2023-02-03T00:35:04;94843.03;;;8.34;56.81
6393;BME280;3229;42.674;23.282;2023-02-03T00:37:31;94847.91;;;8.37;56.82
6393;BME280;3229;42.674;23.282;2023-02-03T00:39:57;94864.94;;;8.37;57.08
6393;BME280;3229;42.674;23.282;2023-02-03T00:42:24;94858.19;;;8.36;56.96
6393;BME280;3229;42.674;23.282;2023-02-03T00:44:51;94855.06;;;8.32;57.14
6393;BME280;3229;42.674;23.282;2023-02-03T00:47:18;94865.25;;;8.32;56.99
6393;BME280;3229;42.674;23.282;2023-02-03T00:49:45;94856.00;;;8.31;57.10
6393;BME280;3229;42.674;23.282;2023-02-03T00:52:13;94853.44;;;8.31;57.02
6393;BME280;3229;42.674;23.282;2023-02-03T00:54:39;94860.28;;;8.30;57.19
6393;BME280;3229;42.674;23.282;2023-02-03T00:57:06;94869.78;;;8.28;57.22
6393;BME280;3229;42.674;23.282;2023-02-03T00:59:33;94861.22;;;8.29;57.50
6393;BME280;3229;42.674;23.282;2023-02-03T01:02:00;94863.06;;;8.27;57.29
6393;BME280;3229;42.674;23.282;2023-02-03T01:04:26;94825.63;;;7.96;57.48
6393;BME280;3229;42.674;23.282;2023-02-03T01:06:53;94881.72;;;8.28;57.27
6393;BME280;3229;42.674;23.282;2023-02-03T01:09:23;94887.59;;;8.28;57.52
6393;BME280;3229;42.674;23.282;2023-02-03T01:11:50;94882.78;;;8.25;57.44
6393;BME280;3229;42.674;23.282;2023-02-03T01:14:17;94892.69;;;8.28;57.25
6393;BME280;3229;42.674;23.282;2023-02-03T01:16:43;94877.91;;;8.22;57.79
6393;BME280;3229;42.674;23.282;2023-02-03T01:19:10;94884.38;;;8.26;57.56
6393;BME280;3229;42.674;23.282;2023-02-03T01:21:37;94875.94;;;8.26;57.65
6393;BME280;3229;42.674;23.282;2023-02-03T01:24:04;94881.97;;;8.25;57.51
6393;BME280;3229;42.674;23.282;2023-02-03T01:26:32;94881.25;;;8.23;57.44
6393;BME280;3229;42.674;23.282;2023-02-03T01:29:00;94883.00;;;8.22;57.41
6393;BME280;3229;42.674;23.282;2023-02-03T01:31:28;94882.31;;;8.20;57.49
6393;BME280;3229;42.674;23.282;2023-02-03T01:33:55;94885.78;;;8.19;57.66
6393;BME280;3229;42.674;23.282;2023-02-03T01:36:25;94867.50;;;8.14;57.55
6393;BME280;3229;42.674;23.282;2023-02-03T01:38:52;94872.47;;;8.16;57.75
6393;BME280;3229;42.674;23.282;2023-02-03T01:41:21;94880.38;;;8.13;57.80
6393;BME280;3229;42.674;23.282;2023-02-03T01:43:51;94878.72;;;8.12;57.78
6393;BME280;3229;42.674;23.282;2023-02-03T01:46:26;94878.97;;;8.09;57.75
6393;BME280;3229;42.674;23.282;2023-02-03T01:49:00;94889.38;;;8.05;57.89
6393;BME280;3229;42.674;23.282;2023-02-03T01:51:29;94882.09;;;8.01;57.61
6393;BME280;3229;42.674;23.282;2023-02-03T01:53:57;94891.94;;;8.05;57.87
6393;BME280;3229;42.674;23.282;2023-02-03T01:56:27;94899.72;;;8.04;57.81
6393;BME280;3229;42.674;23.282;2023-02-03T01:58:57;94895.66;;;8.01;57.80
6393;BME280;3229;42.674;23.282;2023-02-03T02:01:25;94892.16;;;8.02;57.73
6393;BME280;3229;42.674;23.282;2023-02-03T02:03:55;94891.34;;;8.02;57.82
6393;BME280;3229;42.674;23.282;2023-02-03T02:06:23;94893.91;;;8.02;57.52
6393;BME280;3229;42.674;23.282;2023-02-03T02:08:51;94888.94;;;8.00;57.88
6393;BME280;3229;42.674;23.282;2023-02-03T02:11:19;94892.28;;;8.01;57.69
6393;BME280;3229;42.674;23.282;2023-02-03T02:13:47;94897.59;;;7.98;57.57
6393;BME280;3229;42.674;23.282;2023-02-03T02:16:20;94900.88;;;8.00;57.83
6393;BME280;3229;42.674;23.282;2023-02-03T02:19:03;94911.97;;;7.99;57.86
6393;BME280;3229;42.674;23.282;2023-02-03T02:21:46;94910.13;;;8.01;57.66
6393;BME280;3229;42.674;23.282;2023-02-03T02:27:21;94912.78;;;7.99;58.22
6393;BME280;3229;42.674;23.282;2023-02-03T02:30:17;94918.91;;;7.97;57.74
6393;BME280;3229;42.674;23.282;2023-02-03T02:33:00;94837.69;;;7.49;57.81
6393;BME280;3229;42.674;23.282;2023-02-03T02:35:36;94914.75;;;7.96;57.93
6393;BME280;3229;42.674;23.282;2023-02-03T02:38:13;94918.22;;;7.95;57.90
6393;BME280;3229;42.674;23.282;2023-02-03T02:40:48;94904.13;;;7.91;57.88
6393;BME280;3229;42.674;23.282;2023-02-03T02:43:20;94913.59;;;7.89;57.75
6393;BME280;3229;42.674;23.282;2023-02-03T02:45:49;94900.03;;;7.77;57.94
6393;BME280;3229;42.674;23.282;2023-02-03T02:48:25;94901.66;;;7.89;58.10
6393;BME280;3229;42.674;23.282;2023-02-03T02:50:56;94902.59;;;7.88;58.00
6393;BME280;3229;42.674;23.282;2023-02-03T02:53:25;94911.97;;;7.88;57.73
6393;BME280;3229;42.674;23.282;2023-02-03T02:55:54;94927.38;;;7.86;57.91
6393;BME280;3229;42.674;23.282;2023-02-03T02:58:23;94932.47;;;7.86;57.77
6393;BME280;3229;42.674;23.282;2023-02-03T03:00:53;94929.09;;;7.86;57.73
6393;BME280;3229;42.674;23.282;2023-02-03T03:03:22;94939.41;;;7.84;57.99
6393;BME280;3229;42.674;23.282;2023-02-03T03:05:52;94936.84;;;7.84;57.73
6393;BME280;3229;42.674;23.282;2023-02-03T03:08:22;94940.34;;;7.83;57.62
6393;BME280;3229;42.674;23.282;2023-02-03T03:10:52;94940.47;;;7.82;57.85
6393;BME280;3229;42.674;23.282;2023-02-03T03:13:23;94932.91;;;7.80;57.65
6393;BME280;3229;42.674;23.282;2023-02-03T03:15:52;94913.81;;;7.63;57.65
6393;BME280;3229;42.674;23.282;2023-02-03T03:18:25;94940.78;;;7.77;57.65
6393;BME280;3229;42.674;23.282;2023-02-03T03:20:54;94948.53;;;7.75;57.60
6393;BME280;3229;42.674;23.282;2023-02-03T03:23:27;94952.00;;;7.74;57.59
6393;BME280;3229;42.674;23.282;2023-02-03T03:26:03;94923.53;;;7.58;57.68
6393;BME280;3229;42.674;23.282;2023-02-03T03:28:37;94952.22;;;7.71;57.39
6393;BME280;3229;42.674;23.282;2023-02-03T03:31:07;94954.09;;;7.69;57.31
6393;BME280;3229;42.674;23.282;2023-02-03T03:33:36;94957.53;;;7.68;57.47
6393;BME280;3229;42.674;23.282;2023-02-03T03:36:09;94956.16;;;7.64;57.48
6393;BME280;3229;42.674;23.282;2023-02-03T03:38:40;94950.50;;;7.61;57.41
6393;BME280;3229;42.674;23.282;2023-02-03T03:41:12;94953.03;;;7.61;57.51
6393;BME280;3229;42.674;23.282;2023-02-03T03:43:42;94946.44;;;7.58;57.45
6393;BME280;3229;42.674;23.282;2023-02-03T03:46:12;94915.25;;;7.32;57.33
6393;BME280;3229;42.674;23.282;2023-02-03T03:48:45;94947.56;;;7.54;57.34
6393;BME280;3229;42.674;23.282;2023-02-03T03:51:19;94945.25;;;7.51;57.26
6393;BME280;3229;42.674;23.282;2023-02-03T03:53:49;94949.66;;;7.49;57.38
6393;BME280;3229;42.674;23.282;2023-02-03T03:56:20;94940.41;;;7.48;57.36
6393;BME280;3229;42.674;23.282;2023-02-03T03:58:51;94927.09;;;7.44;57.26
6393;BME280;3229;42.674;23.282;2023-02-03T04:01:20;94945.03;;;7.43;57.32
6393;BME280;3229;42.674;23.282;2023-02-03T04:03:53;94943.38;;;7.42;57.27
6393;BME280;3229;42.674;23.282;2023-02-03T04:06:22;94946.16;;;7.39;57.40
6393;BME280;3229;42.674;23.282;2023-02-03T04:08:49;94948.00;;;7.37;57.54
6393;BME280;3229;42.674;23.282;2023-02-03T04:11:15;94951.47;;;7.36;57.47
6393;BME280;3229;42.674;23.282;2023-02-03T04:14:10;94879.56;;;6.87;57.44
6393;BME280;3229;42.674;23.282;2023-02-03T04:16:36;94955.97;;;7.32;57.44
6393;BME280;3229;42.674;23.282;2023-02-03T04:19:05;94956.19;;;7.29;57.49
6393;BME280;3229;42.674;23.282;2023-02-03T04:21:31;94944.03;;;7.21;57.46
6393;BME280;3229;42.674;23.282;2023-02-03T04:23:58;94937.75;;;7.14;57.44
6393;BME280;3229;42.674;23.282;2023-02-03T04:26:25;94964.06;;;7.26;57.46
6393;BME280;3229;42.674;23.282;2023-02-03T04:28:52;94971.78;;;7.24;57.50
6393;BME280;3229;42.674;23.282;2023-02-03T04:31:18;94976.06;;;7.24;57.53
6393;BME280;3229;42.674;23.282;2023-02-03T04:33:45;94988.91;;;7.22;57.48
6393;BME280;3229;42.674;23.282;2023-02-03T04:36:13;94981.34;;;7.21;57.50
6393;BME280;3229;42.674;23.282;2023-02-03T04:38:40;94986.56;;;7.19;57.60
6393;BME280;3229;42.674;23.282;2023-02-03T04:41:07;94983.22;;;7.19;57.52
6393;BME280;3229;42.674;23.282;2023-02-03T04:43:34;94986.69;;;7.18;57.61
6393;BME280;3229;42.674;23.282;2023-02-03T04:46:01;94995.13;;;7.18;57.63
6393;BME280;3229;42.674;23.282;2023-02-03T04:48:27;95005.41;;;7.17;57.57
6393;BME280;3229;42.674;23.282;2023-02-03T04:50:54;95004.56;;;7.16;57.62
6393;BME280;3229;42.674;23.282;2023-02-03T04:53:22;95014.75;;;7.16;57.53
6393;BME280;3229;42.674;23.282;2023-02-03T04:55:49;95010.50;;;7.17;57.51
6393;BME280;3229;42.674;23.282;2023-02-03T04:58:16;95018.81;;;7.19;57.58
6393;BME280;3229;42.674;23.282;2023-02-03T05:00:42;95014.66;;;7.18;57.56
6393;BME280;3229;42.674;23.282;2023-02-03T05:03:09;95023.09;;;7.18;57.50
6393;BME280;3229;42.674;23.282;2023-02-03T05:05:36;95024.34;;;7.13;57.36
6393;BME280;3229;42.674;23.282;2023-02-03T05:08:03;95028.19;;;7.18;57.38
6393;BME280;3229;42.674;23.282;2023-02-03T05:10:31;95026.56;;;7.17;57.50
6393;BME280;3229;42.674;23.282;2023-02-03T05:12:58;95025.84;;;7.15;57.61
6393;BME280;3229;42.674;23.282;2023-02-03T05:15:25;95039.16;;;7.19;57.31
6393;BME280;3229;42.674;23.282;2023-02-03T05:17:53;95036.75;;;7.17;57.49
6393;BME280;3229;42.674;23.282;2023-02-03T05:20:20;95045.19;;;7.18;57.54
6393;BME280;3229;42.674;23.282;2023-02-03T05:22:47;95056.16;;;7.18;57.51
6393;BME280;3229;42.674;23.282;2023-02-03T05:25:14;95059.50;;;7.19;57.57
6393;BME280;3229;42.674;23.282;2023-02-03T05:27:43;95056.97;;;7.19;57.36
6393;BME280;3229;42.674;23.282;2023-02-03T05:30:10;95045.72;;;7.10;57.35
6393;BME280;3229;42.674;23.282;2023-02-03T05:32:37;95061.94;;;7.20;57.37
6393;BME280;3229;42.674;23.282;2023-02-03T05:35:05;95062.19;;;7.17;57.34
6393;BME280;3229;42.674;23.282;2023-02-03T05:37:31;95067.94;;;7.19;57.32
6393;BME280;3229;42.674;23.282;2023-02-03T05:39:58;95063.91;;;7.17;57.47
6393;BME280;3229;42.674;23.282;2023-02-03T05:42:39;95056.28;;;7.17;57.49
6393;BME280;3229;42.674;23.282;2023-02-03T05:45:08;95064.81;;;7.16;57.57
6393;BME280;3229;42.674;23.282;2023-02-03T05:47:34;95067.47;;;7.14;57.47
6393;BME280;3229;42.674;23.282;2023-02-03T05:50:01;95065.03;;;7.13;57.48
6393;BME280;3229;42.674;23.282;2023-02-03T05:52:28;95066.75;;;7.12;57.61
6393;BME280;3229;42.674;23.282;2023-02-03T05:54:55;95067.59;;;7.13;57.64
6393;BME280;3229;42.674;23.282;2023-02-03T05:57:22;95072.66;;;7.13;57.54
6393;BME280;3229;42.674;23.282;2023-02-03T05:59:48;95082.00;;;7.12;57.66
6393;BME280;3229;42.674;23.282;2023-02-03T06:02:17;95080.31;;;7.13;57.59
6393;BME280;3229;42.674;23.282;2023-02-03T06:04:43;95082.59;;;7.16;57.45
6393;BME280;3229;42.674;23.282;2023-02-03T06:07:10;95084.94;;;7.19;57.57
6393;BME280;3229;42.674;23.282;2023-02-03T06:09:37;95087.28;;;7.22;57.37
6393;BME280;3229;42.674;23.282;2023-02-03T06:12:04;95092.03;;;7.26;57.24
6393;BME280;3229;42.674;23.282;2023-02-03T06:14:31;95086.72;;;7.29;57.21
6393;BME280;3229;42.674;23.282;2023-02-03T06:16:57;95082.56;;;7.28;57.37
6393;BME280;3229;42.674;23.282;2023-02-03T06:19:26;95100.09;;;7.44;57.26
6393;BME280;3229;42.674;23.282;2023-02-03T06:21:52;95094.69;;;7.49;56.99
6393;BME280;3229;42.674;23.282;2023-02-03T06:24:19;95092.53;;;7.56;57.03
6393;BME280;3229;42.674;23.282;2023-02-03T06:26:46;95105.75;;;7.61;56.78
6393;BME280;3229;42.674;23.282;2023-02-03T06:29:13;95102.53;;;7.70;56.67
6393;BME280;3229;42.674;23.282;2023-02-03T06:31:39;95104.41;;;7.79;56.55
6393;BME280;3229;42.674;23.282;2023-02-03T06:34:07;95098.69;;;7.99;56.10
6393;BME280;3229;42.674;23.282;2023-02-03T06:36:35;95101.06;;;8.36;55.71
6393;BME280;3229;42.674;23.282;2023-02-03T06:39:02;95103.78;;;8.79;55.54
6393;BME280;3229;42.674;23.282;2023-02-03T06:41:29;95100.13;;;9.27;55.50
6393;BME280;3229;42.674;23.282;2023-02-03T06:43:57;95112.22;;;9.89;55.59
6393;BME280;3229;42.674;23.282;2023-02-03T06:46:23;95117.59;;;10.49;55.49
6393;BME280;3229;42.674;23.282;2023-02-03T06:48:54;95120.41;;;11.07;55.14
6393;BME280;3229;42.674;23.282;2023-02-03T06:51:20;95126.19;;;11.69;54.75
6393;BME280;3229;42.674;23.282;2023-02-03T06:53:50;95131.06;;;12.30;54.52
6393;BME280;3229;42.674;23.282;2023-02-03T06:56:17;95134.44;;;12.87;53.58
6393;BME280;3229;42.674;23.282;2023-02-03T06:58:44;95131.72;;;13.53;53.11
6393;BME280;3229;42.674;23.282;2023-02-03T07:01:10;95143.47;;;14.27;52.26
6393;BME280;3229;42.674;23.282;2023-02-03T07:03:37;95137.03;;;15.01;51.67
6393;BME280;3229;42.674;23.282;2023-02-03T07:06:05;95137.16;;;15.76;50.77
6393;BME280;3229;42.674;23.282;2023-02-03T07:08:31;95135.56;;;16.49;50.14
6393;BME280;3229;42.674;23.282;2023-02-03T07:11:00;95136.41;;;17.21;49.29
6393;BME280;3229;42.674;23.282;2023-02-03T07:13:26;95136.56;;;17.90;48.39
6393;BME280;3229;42.674;23.282;2023-02-03T07:15:53;95143.81;;;18.55;47.79
6393;BME280;3229;42.674;23.282;2023-02-03T07:18:20;95150.53;;;19.17;46.82
6393;BME280;3229;42.674;23.282;2023-02-03T07:20:49;95142.09;;;19.74;46.14
6393;BME280;3229;42.674;23.282;2023-02-03T07:23:16;95126.28;;;20.12;45.70
6393;BME280;3229;42.674;23.282;2023-02-03T07:25:43;95134.53;;;20.65;44.91
6393;BME280;3229;42.674;23.282;2023-02-03T07:28:11;95149.41;;;21.06;44.37
6393;BME280;3229;42.674;23.282;2023-02-03T07:30:38;95145.00;;;21.41;43.80
6393;BME280;3229;42.674;23.282;2023-02-03T07:33:05;95155.34;;;21.76;43.51
6393;BME280;3229;42.674;23.282;2023-02-03T07:35:32;95166.84;;;22.01;42.76
6393;BME280;3229;42.674;23.282;2023-02-03T07:37:59;95164.34;;;22.28;42.32
6393;BME280;3229;42.674;23.282;2023-02-03T07:40:26;95166.34;;;22.52;42.04
6393;BME280;3229;42.674;23.282;2023-02-03T07:42:53;95158.94;;;22.69;41.91
6393;BME280;3229;42.674;23.282;2023-02-03T07:45:21;95173.00;;;22.95;41.53
6393;BME280;3229;42.674;23.282;2023-02-03T07:47:49;95172.38;;;23.06;41.03
6393;BME280;3229;42.674;23.282;2023-02-03T07:50:16;95163.13;;;23.17;40.89
6393;BME280;3229;42.674;23.282;2023-02-03T07:52:43;95165.13;;;23.28;40.78
6393;BME280;3229;42.674;23.282;2023-02-03T07:55:10;95168.88;;;23.39;40.41
6393;BME280;3229;42.674;23.282;2023-02-03T07:57:36;95168.09;;;23.45;40.44
6393;BME280;3229;42.674;23.282;2023-02-03T08:00:08;95179.28;;;23.52;40.11
6393;BME280;3229;42.674;23.282;2023-02-03T08:02:37;95178.25;;;23.60;39.80
6393;BME280;3229;42.674;23.282;2023-02-03T08:05:04;95176.66;;;23.65;39.95
6393;BME280;3229;42.674;23.282;2023-02-03T08:07:31;95173.44;;;23.63;39.69
6393;BME280;3229;42.674;23.282;2023-02-03T08:09:57;95172.63;;;23.63;39.72
6393;BME280;3229;42.674;23.282;2023-02-03T08:12:24;95172.66;;;23.56;39.72
6393;BME280;3229;42.674;23.282;2023-02-03T08:14:51;95166.31;;;23.32;40.12
6393;BME280;3229;42.674;23.282;2023-02-03T08:17:18;95166.16;;;23.00;40.24
6393;BME280;3229;42.674;23.282;2023-02-03T08:19:46;95176.00;;;22.72;40.05
6393;BME280;3229;42.674;23.282;2023-02-03T08:22:13;95167.94;;;22.34;39.71
6393;BME280;3229;42.674;23.282;2023-02-03T08:24:41;95166.66;;;22.03;39.71
6393;BME280;3229;42.674;23.282;2023-02-03T08:27:10;95167.94;;;21.59;39.72
6393;BME280;3229;42.674;23.282;2023-02-03T08:29:37;95177.34;;;21.25;39.77
6393;BME280;3229;42.674;23.282;2023-02-03T08:32:04;95171.78;;;21.00;39.51
6393;BME280;3229;42.674;23.282;2023-02-03T08:34:31;95179.41;;;20.52;39.71
6393;BME280;3229;42.674;23.282;2023-02-03T08:36:59;95184.94;;;20.07;39.59
6393;BME280;3229;42.674;23.282;2023-02-03T08:39:27;95184.56;;;19.59;39.95
6393;BME280;3229;42.674;23.282;2023-02-03T08:41:53;95184.25;;;19.17;40.15
6393;BME280;3229;42.674;23.282;2023-02-03T08:44:20;95194.66;;;18.79;40.27
6393;BME280;3229;42.674;23.282;2023-02-03T08:46:48;95201.34;;;18.51;40.63
6393;BME280;3229;42.674;23.282;2023-02-03T08:49:16;95202.50;;;18.25;40.73
6393;BME280;3229;42.674;23.282;2023-02-03T08:51:43;95200.38;;;18.06;40.88
6393;BME280;3229;42.674;23.282;2023-02-03T08:54:12;95203.84;;;17.90;40.77
6393;BME280;3229;42.674;23.282;2023-02-03T08:56:39;95204.41;;;17.69;41.41
6393;BME280;3229;42.674;23.282;2023-02-03T08:59:06;95209.75;;;17.68;40.86
6393;BME280;3229;42.674;23.282;2023-02-03T09:01:33;95201.72;;;17.54;40.66
6393;BME280;3229;42.674;23.282;2023-02-03T09:04:00;95214.75;;;17.22;40.83
6393;BME280;3229;42.674;23.282;2023-02-03T09:06:28;95212.53;;;17.11;41.00
6393;BME280;3229;42.674;23.282;2023-02-03T09:08:55;95206.28;;;16.89;41.20
6393;BME280;3229;42.674;23.282;2023-02-03T09:11:24;95206.25;;;16.64;41.48
6393;BME280;3229;42.674;23.282;2023-02-03T09:13:51;95207.41;;;16.45;41.64
6393;BME280;3229;42.674;23.282;2023-02-03T09:16:18;95203.31;;;16.26;41.89
6393;BME280;3229;42.674;23.282;2023-02-03T09:18:46;95201.88;;;16.08;41.98
6393;BME280;3229;42.674;23.282;2023-02-03T09:21:14;95204.72;;;15.96;42.07
6393;BME280;3229;42.674;23.282;2023-02-03T09:23:42;95197.00;;;15.96;41.79
6393;BME280;3229;42.674;23.282;2023-02-03T09:26:10;95190.53;;;15.92;41.85
6393;BME280;3229;42.674;23.282;2023-02-03T09:28:39;95201.81;;;15.83;42.11
6393;BME280;3229;42.674;23.282;2023-02-03T09:31:08;95196.63;;;15.75;42.08
6393;BME280;3229;42.674;23.282;2023-02-03T09:33:35;95192.56;;;15.64;41.94
6393;BME280;3229;42.674;23.282;2023-02-03T09:36:03;95197.38;;;15.59;41.91
6393;BME280;3229;42.674;23.282;2023-02-03T09:38:30;95196.63;;;15.41;42.32
6393;BME280;3229;42.674;23.282;2023-02-03T09:41:00;95193.16;;;15.24;42.27
6393;BME280;3229;42.674;23.282;2023-02-03T09:43:31;95188.47;;;15.11;42.61
6393;BME280;3229;42.674;23.282;2023-02-03T09:46:05;95204.16;;;15.00;42.75
6393;BME280;3229;42.674;23.282;2023-02-03T09:48:36;95188.66;;;14.92;42.67
6393;BME280;3229;42.674;23.282;2023-02-03T09:51:07;95179.22;;;14.74;42.85
6393;BME280;3229;42.674;23.282;2023-02-03T09:53:46;95188.94;;;14.63;42.95
6393;BME280;3229;42.674;23.282;2023-02-03T09:56:22;95188.88;;;14.54;42.82
6393;BME280;3229;42.674;23.282;2023-02-03T09:58:52;95188.53;;;14.49;42.70
6393;BME280;3229;42.674;23.282;2023-02-03T10:01:21;95181.38;;;14.43;42.67
6393;BME280;3229;42.674;23.282;2023-02-03T10:03:53;95172.19;;;14.41;42.56
6393;BME280;3229;42.674;23.282;2023-02-03T10:06:31;95178.94;;;14.42;42.59
6393;BME280;3229;42.674;23.282;2023-02-03T10:09:18;95175.88;;;14.38;42.54
6393;BME280;3229;42.674;23.282;2023-02-03T10:12:12;95169.69;;;14.31;42.42
6393;BME280;3229;42.674;23.282;2023-02-03T10:14:52;95171.41;;;14.22;42.70
6393;BME280;3229;42.674;23.282;2023-02-03T10:17:29;95164.41;;;14.15;42.83
6393;BME280;3229;42.674;23.282;2023-02-03T10:20:03;95165.31;;;14.05;42.81
6393;BME280;3229;42.674;23.282;2023-02-03T10:22:35;95168.84;;;14.04;42.90
6393;BME280;3229;42.674;23.282;2023-02-03T10:25:06;95163.09;;;14.11;42.17
6393;BME280;3229;42.674;23.282;2023-02-03T10:27:37;95164.13;;;14.18;42.45
6393;BME280;3229;42.674;23.282;2023-02-03T10:30:09;95148.25;;;14.22;42.53
6393;BME280;3229;42.674;23.282;2023-02-03T10:32:45;95153.56;;;14.21;42.67
6393;BME280;3229;42.674;23.282;2023-02-03T10:35:14;95154.50;;;14.20;42.65
6393;BME280;3229;42.674;23.282;2023-02-03T10:37:43;95133.47;;;14.06;42.92
6393;BME280;3229;42.674;23.282;2023-02-03T10:40:13;95147.00;;;14.09;42.92
6393;BME280;3229;42.674;23.282;2023-02-03T10:42:41;95151.63;;;14.05;42.72
6393;BME280;3229;42.674;23.282;2023-02-03T10:45:27;95143.84;;;13.97;42.88
6393;BME280;3229;42.674;23.282;2023-02-03T10:47:57;95114.84;;;13.69;43.12
6393;BME280;3229;42.674;23.282;2023-02-03T10:50:25;95152.66;;;13.76;43.09
6393;BME280;3229;42.674;23.282;2023-02-03T10:53:19;95166.53;;;13.66;43.27
6393;BME280;3229;42.674;23.282;2023-02-03T10:55:48;95141.63;;;13.48;43.26
6393;BME280;3229;42.674;23.282;2023-02-03T10:58:20;95164.75;;;13.48;43.35
6393;BME280;3229;42.674;23.282;2023-02-03T11:00:53;95161.00;;;13.43;43.31
6393;BME280;3229;42.674;23.282;2023-02-03T11:03:24;95164.81;;;13.39;43.32
6393;BME280;3229;42.674;23.282;2023-02-03T11:06:03;95154.53;;;13.39;43.28
6393;BME280;3229;42.674;23.282;2023-02-03T11:08:31;95156.25;;;13.38;43.16
6393;BME280;3229;42.674;23.282;2023-02-03T11:11:03;95151.13;;;13.38;43.12
6393;BME280;3229;42.674;23.282;2023-02-03T11:13:30;95157.91;;;13.39;43.16
6393;BME280;3229;42.674;23.282;2023-02-03T11:15:59;95151.28;;;13.37;43.06
6393;BME280;3229;42.674;23.282;2023-02-03T11:18:38;95143.34;;;13.30;42.79
6393;BME280;3229;42.674;23.282;2023-02-03T11:21:09;95125.13;;;13.14;42.87
6393;BME280;3229;42.674;23.282;2023-02-03T11:23:46;95137.38;;;13.29;42.95
6393;BME280;3229;42.674;23.282;2023-02-03T11:26:15;95138.59;;;13.25;43.03
6393;BME280;3229;42.674;23.282;2023-02-03T11:28:45;95133.06;;;13.20;43.05
6393;BME280;3229;42.674;23.282;2023-02-03T11:31:18;95130.25;;;13.23;42.95
6393;BME280;3229;42.674;23.282;2023-02-03T11:33:51;95122.13;;;13.28;42.64
6393;BME280;3229;42.674;23.282;2023-02-03T11:36:19;95117.66;;;13.30;42.69
6393;BME280;3229;42.674;23.282;2023-02-03T11:38:46;95122.13;;;13.28;42.79
6393;BME280;3229;42.674;23.282;2023-02-03T11:41:17;95088.66;;;13.10;42.96
6393;BME280;3229;42.674;23.282;2023-02-03T11:43:45;95102.00;;;13.23;42.98
6393;BME280;3229;42.674;23.282;2023-02-03T11:46:13;95111.19;;;13.26;42.65
6393;BME280;3229;42.674;23.282;2023-02-03T11:48:54;95109.03;;;13.21;42.90
6393;BME280;3229;42.674;23.282;2023-02-03T11:51:34;95108.34;;;13.19;42.78
6393;BME280;3229;42.674;23.282;2023-02-03T11:54:16;95103.38;;;13.18;42.85
6393;BME280;3229;42.674;23.282;2023-02-03T11:57:14;95109.72;;;13.23;42.55
6393;BME280;3229;42.674;23.282;2023-02-03T11:59:54;95109.88;;;13.40;42.66
6393;BME280;3229;42.674;23.282;2023-02-03T12:02:52;95111.31;;;13.52;42.47
6393;BME280;3229;42.674;23.282;2023-02-03T12:05:35;95109.19;;;13.65;42.17
6393;BME280;3229;42.674;23.282;2023-02-03T12:08:12;95093.31;;;13.70;41.95
6393;BME280;3229;42.674;23.282;2023-02-03T12:10:51;95096.84;;;13.69;42.12
6393;BME280;3229;42.674;23.282;2023-02-03T12:13:32;95098.94;;;13.55;42.15
6393;BME280;3229;42.674;23.282;2023-02-03T12:16:26;95099.47;;;13.41;42.06
6393;BME280;3229;42.674;23.282;2023-02-03T12:19:05;95106.69;;;13.28;42.27
6393;BME280;3229;42.674;23.282;2023-02-03T12:21:49;95103.00;;;13.13;42.42
6393;BME280;3229;42.674;23.282;2023-02-03T12:24:31;95094.13;;;12.97;42.46
6393;BME280;3229;42.674;23.282;2023-02-03T12:27:10;95087.56;;;12.85;42.39
6393;BME280;3229;42.674;23.282;2023-02-03T12:29:42;95086.91;;;12.73;42.20
6393;BME280;3229;42.674;23.282;2023-02-03T12:32:16;95092.25;;;12.62;42.34
6393;BME280;3229;42.674;23.282;2023-02-03T12:34:49;95082.03;;;12.52;42.12
6393;BME280;3229;42.674;23.282;2023-02-03T12:37:22;95086.34;;;12.42;42.26
6393;BME280;3229;42.674;23.282;2023-02-03T12:39:52;95079.06;;;12.38;42.32
6393;BME280;3229;42.674;23.282;2023-02-03T12:42:22;95079.50;;;12.33;42.35
6393;BME280;3229;42.674;23.282;2023-02-03T12:44:54;95069.94;;;12.16;42.18
6393;BME280;3229;42.674;23.282;2023-02-03T12:47:28;95071.72;;;12.15;42.29
6393;BME280;3229;42.674;23.282;2023-02-03T12:50:00;95065.66;;;12.07;42.49
6393;BME280;3229;42.674;23.282;2023-02-03T12:52:33;95071.47;;;11.99;42.57
6393;BME280;3229;42.674;23.282;2023-02-03T12:55:12;95070.41;;;11.92;42.43
6393;BME280;3229;42.674;23.282;2023-02-03T12:57:43;95061.88;;;11.91;42.63
6393;BME280;3229;42.674;23.282;2023-02-03T13:00:19;95061.06;;;11.91;42.64
6393;BME280;3229;42.674;23.282;2023-02-03T13:03:05;95054.59;;;11.87;42.67
6393;BME280;3229;42.674;23.282;2023-02-03T13:05:40;95045.56;;;11.83;42.89
6393;BME280;3229;42.674;23.282;2023-02-03T13:08:14;95048.13;;;11.73;42.72
6393;BME280;3229;42.674;23.282;2023-02-03T13:10:46;95048.25;;;11.71;42.89
6393;BME280;3229;42.674;23.282;2023-02-03T13:13:20;95057.03;;;11.69;43.13
6393;BME280;3229;42.674;23.282;2023-02-03T13:15:49;95041.13;;;11.55;43.11
6393;BME280;3229;42.674;23.282;2023-02-03T13:18:24;95046.38;;;11.54;42.98
6393;BME280;3229;42.674;23.282;2023-02-03T13:20:53;95055.28;;;11.50;43.05
6393;BME280;3229;42.674;23.282;2023-02-03T13:23:21;95051.88;;;11.40;43.30
6393;BME280;3229;42.674;23.282;2023-02-03T13:28:59;95055.25;;;11.30;43.68
6393;BME280;3229;42.674;23.282;2023-02-03T13:31:40;95049.72;;;11.25;43.51
6393;BME280;3229;42.674;23.282;2023-02-03T13:37:22;95049.44;;;11.19;43.34
6393;BME280;3229;42.674;23.282;2023-02-03T13:40:17;95049.84;;;11.14;43.72
6393;BME280;3229;42.674;23.282;2023-02-03T13:42:50;95028.09;;;10.89;43.74